sensor_id;sensor_type;location;lat;lon;timestamp;temperature;humidity
15203;DHT22;7702;51.046;5.184;2023-04-09T00:02:17;6.40;99.90
15203;DHT22;7702;51.046;5.184;2023-04-09T00:04:42;6.50;99.90
15203;DHT22;7702;51.046;5.184;2023-04-09T00:07:08;6.60;99.90
15203;DHT22;7702;51.046;5.184;2023-04-09T00:09:34;6.70;99.90
15203;DHT22;7702;51.046;5.184;2023-04-09T00:12:00;6.90;99.90
15203;DHT22;7702;51.046;5.184;2023-04-09T00:14:26;7.00;99.90
15203;DHT22;7702;51.046;5.184;2023-04-09T00:16:52;7.10;99.90
15203;DHT22;7702;51.046;5.184;2023-04-09T00:19:18;7.20;99.90
15203;DHT22;7702;51.046;5.184;2023-04-09T00:21:45;7.20;99.90
15203;DHT22;7702;51.046;5.184;2023-04-09T00:24:10;7.30;99.90
15203;DHT22;7702;51.046;5.184;2023-04-09T00:26:36;7.40;99.90
15203;DHT22;7702;51.046;5.184;2023-04-09T00:29:02;7.50;99.90
15203;DHT22;7702;51.046;5.184;2023-04-09T00:31:28;7.60;99.90
15203;DHT22;7702;51.046;5.184;2023-04-09T00:33:53;7.70;99.90
15203;DHT22;7702;51.046;5.184;2023-04-09T00:36:19;7.70;99.90
15203;DHT22;7702;51.046;5.184;2023-04-09T00:38:45;7.70;99.90
15203;DHT22;7702;51.046;5.184;2023-04-09T00:41:12;7.80;99.90
15203;DHT22;7702;51.046;5.184;2023-04-09T00:43:38;7.90;99.90
15203;DHT22;7702;51.046;5.184;2023-04-09T00:46:04;7.90;99.90
15203;DHT22;7702;51.046;5.184;2023-04-09T00:48:30;8.00;99.90
15203;DHT22;7702;51.046;5.184;2023-04-09T00:50:56;8.00;99.90
15203;DHT22;7702;51.046;5.184;2023-04-09T00:53:22;8.10;99.90
15203;DHT22;7702;51.046;5.184;2023-04-09T00:55:48;8.10;99.90
15203;DHT22;7702;51.046;5.184;2023-04-09T00:58:14;8.10;99.90
15203;DHT22;7702;51.046;5.184;2023-04-09T01:00:40;8.20;99.90
15203;DHT22;7702;51.046;5.184;2023-04-09T01:03:06;8.20;99.90
15203;DHT22;7702;51.046;5.184;2023-04-09T01:11:41;8.40;99.90
15203;DHT22;7702;51.046;5.184;2023-04-09T01:14:20;8.40;99.90
15203;DHT22;7702;51.046;5.184;2023-04-09T01:16:56;8.50;99.90
15203;DHT22;7702;51.046;5.184;2023-04-09T01:19:47;8.50;99.90
15203;DHT22;7702;51.046;5.184;2023-04-09T01:30:34;8.60;99.90
15203;DHT22;7702;51.046;5.184;2023-04-09T01:33:00;8.60;99.90
15203;DHT22;7702;51.046;5.184;2023-04-09T01:35:28;8.60;99.90
15203;DHT22;7702;51.046;5.184;2023-04-09T01:37:54;8.60;99.90
15203;DHT22;7702;51.046;5.184;2023-04-09T01:40:21;8.60;99.90
15203;DHT22;7702;51.046;5.184;2023-04-09T01:42:47;8.60;99.90
15203;DHT22;7702;51.046;5.184;2023-04-09T01:45:13;8.70;99.90
15203;DHT22;7702;51.046;5.184;2023-04-09T01:47:40;8.70;99.90
15203;DHT22;7702;51.046;5.184;2023-04-09T01:50:06;8.80;99.90
15203;DHT22;7702;51.046;5.184;2023-04-09T01:52:32;8.80;99.90
15203;DHT22;7702;51.046;5.184;2023-04-09T01:54:58;8.70;99.90
15203;DHT22;7702;51.046;5.184;2023-04-09T01:57:24;8.80;99.90
15203;DHT22;7702;51.046;5.184;2023-04-09T01:59:50;8.80;99.90
15203;DHT22;7702;51.046;5.184;2023-04-09T02:02:27;8.70;99.90
15203;DHT22;7702;51.046;5.184;2023-04-09T02:05:00;8.80;99.90
15203;DHT22;7702;51.046;5.184;2023-04-09T02:07:37;8.70;99.90
15203;DHT22;7702;51.046;5.184;2023-04-09T02:10:05;8.80;99.90
15203;DHT22;7702;51.046;5.184;2023-04-09T02:12:51;8.80;99.90
15203;DHT22;7702;51.046;5.184;2023-04-09T02:15:19;8.70;99.90
15203;DHT22;7702;51.046;5.184;2023-04-09T02:17:46;8.60;99.90
15203;DHT22;7702;51.046;5.184;2023-04-09T02:20:16;8.50;99.90
15203;DHT22;7702;51.046;5.184;2023-04-09T02:22:42;8.40;99.90
15203;DHT22;7702;51.046;5.184;2023-04-09T02:25:08;8.30;99.90
15203;DHT22;7702;51.046;5.184;2023-04-09T02:27:33;8.20;99.90
15203;DHT22;7702;51.046;5.184;2023-04-09T02:29:59;8.10;99.90
15203;DHT22;7702;51.046;5.184;2023-04-09T02:32:25;7.90;99.90
15203;DHT22;7702;51.046;5.184;2023-04-09T02:34:51;7.70;99.90
15203;DHT22;7702;51.046;5.184;2023-04-09T02:37:17;7.70;99.90
15203;DHT22;7702;51.046;5.184;2023-04-09T02:39:43;7.60;99.90
15203;DHT22;7702;51.046;5.184;2023-04-09T02:42:08;7.50;99.90
15203;DHT22;7702;51.046;5.184;2023-04-09T02:44:34;7.40;99.90
15203;DHT22;7702;51.046;5.184;2023-04-09T02:47:00;7.20;99.90
15203;DHT22;7702;51.046;5.184;2023-04-09T02:49:26;7.10;99.90
15203;DHT22;7702;51.046;5.184;2023-04-09T02:51:52;7.00;99.90
15203;DHT22;7702;51.046;5.184;2023-04-09T02:54:17;6.80;99.90
15203;DHT22;7702;51.046;5.184;2023-04-09T02:56:43;6.70;99.90
15203;DHT22;7702;51.046;5.184;2023-04-09T02:59:09;6.70;99.90
15203;DHT22;7702;51.046;5.184;2023-04-09T03:01:34;6.60;99.90
15203;DHT22;7702;51.046;5.184;2023-04-09T03:04:00;6.60;99.90
15203;DHT22;7702;51.046;5.184;2023-04-09T03:06:26;6.50;99.90
15203;DHT22;7702;51.046;5.184;2023-04-09T03:08:52;6.60;99.90
15203;DHT22;7702;51.046;5.184;2023-04-09T03:11:18;6.60;99.90
15203;DHT22;7702;51.046;5.184;2023-04-09T03:13:44;6.60;99.90
15203;DHT22;7702;51.046;5.184;2023-04-09T03:16:09;6.60;99.90
15203;DHT22;7702;51.046;5.184;2023-04-09T03:18:36;6.60;99.90
15203;DHT22;7702;51.046;5.184;2023-04-09T03:21:05;6.50;99.90
15203;DHT22;7702;51.046;5.184;2023-04-09T03:23:34;6.40;99.90
15203;DHT22;7702;51.046;5.184;2023-04-09T03:26:03;6.30;99.90
15203;DHT22;7702;51.046;5.184;2023-04-09T03:28:28;6.20;99.90
15203;DHT22;7702;51.046;5.184;2023-04-09T03:30:55;6.10;99.90
15203;DHT22;7702;51.046;5.184;2023-04-09T03:33:20;6.00;99.90
15203;DHT22;7702;51.046;5.184;2023-04-09T03:35:46;5.90;99.90
15203;DHT22;7702;51.046;5.184;2023-04-09T03:38:12;5.80;99.90
15203;DHT22;7702;51.046;5.184;2023-04-09T03:40:37;5.80;99.90
15203;DHT22;7702;51.046;5.184;2023-04-09T03:43:03;5.80;99.90
15203;DHT22;7702;51.046;5.184;2023-04-09T03:45:29;5.80;99.90
15203;DHT22;7702;51.046;5.184;2023-04-09T03:47:55;5.90;99.90
15203;DHT22;7702;51.046;5.184;2023-04-09T03:50:20;6.00;99.90
15203;DHT22;7702;51.046;5.184;2023-04-09T03:52:46;6.00;99.90
15203;DHT22;7702;51.046;5.184;2023-04-09T03:55:12;6.00;99.90
15203;DHT22;7702;51.046;5.184;2023-04-09T03:57:38;6.00;99.90
15203;DHT22;7702;51.046;5.184;2023-04-09T04:00:04;6.00;99.90
15203;DHT22;7702;51.046;5.184;2023-04-09T04:02:30;6.00;99.90
15203;DHT22;7702;51.046;5.184;2023-04-09T04:04:58;6.10;99.90
15203;DHT22;7702;51.046;5.184;2023-04-09T04:07:24;6.20;99.90
15203;DHT22;7702;51.046;5.184;2023-04-09T04:09:50;6.20;99.90
15203;DHT22;7702;51.046;5.184;2023-04-09T04:12:16;6.20;99.90
15203;DHT22;7702;51.046;5.184;2023-04-09T04:14:42;6.30;99.90
15203;DHT22;7702;51.046;5.184;2023-04-09T04:17:07;6.30;99.90
15203;DHT22;7702;51.046;5.184;2023-04-09T04:19:33;6.30;99.90
15203;DHT22;7702;51.046;5.184;2023-04-09T04:21:59;6.20;99.90
15203;DHT22;7702;51.046;5.184;2023-04-09T04:24:24;6.20;99.90
15203;DHT22;7702;51.046;5.184;2023-04-09T04:26:50;6.10;99.90
15203;DHT22;7702;51.046;5.184;2023-04-09T04:29:16;5.90;99.90
15203;DHT22;7702;51.046;5.184;2023-04-09T04:31:42;5.80;99.90
15203;DHT22;7702;51.046;5.184;2023-04-09T04:34:08;5.60;99.90
15203;DHT22;7702;51.046;5.184;2023-04-09T04:36:35;5.50;99.90
15203;DHT22;7702;51.046;5.184;2023-04-09T04:39:01;5.40;99.90
15203;DHT22;7702;51.046;5.184;2023-04-09T04:41:27;5.30;99.90
15203;DHT22;7702;51.046;5.184;2023-04-09T04:43:53;5.30;99.90
15203;DHT22;7702;51.046;5.184;2023-04-09T04:46:19;5.20;99.90
15203;DHT22;7702;51.046;5.184;2023-04-09T04:48:45;5.20;99.90
15203;DHT22;7702;51.046;5.184;2023-04-09T04:51:11;5.20;99.90
15203;DHT22;7702;51.046;5.184;2023-04-09T04:53:37;5.20;99.90
15203;DHT22;7702;51.046;5.184;2023-04-09T04:56:02;5.20;99.90
15203;DHT22;7702;51.046;5.184;2023-04-09T04:58:28;5.20;99.90
15203;DHT22;7702;51.046;5.184;2023-04-09T05:00:55;5.10;99.90
15203;DHT22;7702;51.046;5.184;2023-04-09T05:03:20;5.00;99.90
15203;DHT22;7702;51.046;5.184;2023-04-09T05:05:46;5.00;99.90
15203;DHT22;7702;51.046;5.184;2023-04-09T05:08:12;4.90;99.90
15203;DHT22;7702;51.046;5.184;2023-04-09T05:10:40;4.80;99.90
15203;DHT22;7702;51.046;5.184;2023-04-09T05:13:07;4.80;99.90
15203;DHT22;7702;51.046;5.184;2023-04-09T05:15:32;4.80;99.90
15203;DHT22;7702;51.046;5.184;2023-04-09T05:18:01;4.80;99.90
15203;DHT22;7702;51.046;5.184;2023-04-09T05:20:27;4.80;99.90
15203;DHT22;7702;51.046;5.184;2023-04-09T05:22:53;4.70;99.90
15203;DHT22;7702;51.046;5.184;2023-04-09T05:25:18;4.80;99.90
15203;DHT22;7702;51.046;5.184;2023-04-09T05:27:44;4.80;99.90
15203;DHT22;7702;51.046;5.184;2023-04-09T05:30:10;4.80;99.90
15203;DHT22;7702;51.046;5.184;2023-04-09T05:32:36;4.80;99.90
15203;DHT22;7702;51.046;5.184;2023-04-09T05:35:02;4.90;99.90
15203;DHT22;7702;51.046;5.184;2023-04-09T05:37:28;5.00;99.90
15203;DHT22;7702;51.046;5.184;2023-04-09T05:39:53;5.10;99.90
15203;DHT22;7702;51.046;5.184;2023-04-09T05:42:20;5.30;99.90
15203;DHT22;7702;51.046;5.184;2023-04-09T05:44:46;5.40;99.90
15203;DHT22;7702;51.046;5.184;2023-04-09T05:47:12;5.60;99.90
15203;DHT22;7702;51.046;5.184;2023-04-09T05:49:37;5.60;99.90
15203;DHT22;7702;51.046;5.184;2023-04-09T05:52:03;5.80;99.90
15203;DHT22;7702;51.046;5.184;2023-04-09T05:54:30;5.80;99.90
15203;DHT22;7702;51.046;5.184;2023-04-09T05:56:56;5.90;99.90
15203;DHT22;7702;51.046;5.184;2023-04-09T05:59:21;6.00;99.90
15203;DHT22;7702;51.046;5.184;2023-04-09T06:01:47;6.10;99.90
15203;DHT22;7702;51.046;5.184;2023-04-09T06:04:13;6.20;99.90
15203;DHT22;7702;51.046;5.184;2023-04-09T06:06:38;6.30;99.90
15203;DHT22;7702;51.046;5.184;2023-04-09T06:09:05;6.50;99.90
15203;DHT22;7702;51.046;5.184;2023-04-09T06:11:31;6.60;99.90
15203;DHT22;7702;51.046;5.184;2023-04-09T06:13:57;6.70;99.90
15203;DHT22;7702;51.046;5.184;2023-04-09T06:16:23;6.80;99.90
15203;DHT22;7702;51.046;5.184;2023-04-09T06:18:48;6.90;99.90
15203;DHT22;7702;51.046;5.184;2023-04-09T06:21:18;7.00;99.90
15203;DHT22;7702;51.046;5.184;2023-04-09T06:23:44;7.20;99.90
15203;DHT22;7702;51.046;5.184;2023-04-09T06:26:10;7.20;99.90
15203;DHT22;7702;51.046;5.184;2023-04-09T06:28:36;7.30;99.90
15203;DHT22;7702;51.046;5.184;2023-04-09T06:31:02;7.50;99.90
15203;DHT22;7702;51.046;5.184;2023-04-09T06:33:28;7.60;99.90
15203;DHT22;7702;51.046;5.184;2023-04-09T06:35:53;7.70;99.90
15203;DHT22;7702;51.046;5.184;2023-04-09T06:38:19;7.90;99.90
15203;DHT22;7702;51.046;5.184;2023-04-09T06:40:45;7.90;99.90
15203;DHT22;7702;51.046;5.184;2023-04-09T06:43:11;7.90;99.90
15203;DHT22;7702;51.046;5.184;2023-04-09T06:45:37;8.00;99.90
15203;DHT22;7702;51.046;5.184;2023-04-09T06:48:03;8.00;99.90
15203;DHT22;7702;51.046;5.184;2023-04-09T06:50:30;8.10;99.90
15203;DHT22;7702;51.046;5.184;2023-04-09T06:52:56;8.20;99.90
15203;DHT22;7702;51.046;5.184;2023-04-09T06:55:21;8.30;99.90
15203;DHT22;7702;51.046;5.184;2023-04-09T06:57:47;8.40;99.90
15203;DHT22;7702;51.046;5.184;2023-04-09T07:00:13;8.70;99.90
15203;DHT22;7702;51.046;5.184;2023-04-09T07:02:39;8.90;99.90
15203;DHT22;7702;51.046;5.184;2023-04-09T07:05:05;8.90;99.90
15203;DHT22;7702;51.046;5.184;2023-04-09T07:07:31;9.10;99.90
15203;DHT22;7702;51.046;5.184;2023-04-09T07:09:56;9.30;99.90
15203;DHT22;7702;51.046;5.184;2023-04-09T07:12:26;9.30;99.90
15203;DHT22;7702;51.046;5.184;2023-04-09T07:14:52;9.40;99.90
15203;DHT22;7702;51.046;5.184;2023-04-09T07:17:18;9.40;99.90
15203;DHT22;7702;51.046;5.184;2023-04-09T07:19:44;9.60;99.90
15203;DHT22;7702;51.046;5.184;2023-04-09T07:22:09;9.70;99.90
15203;DHT22;7702;51.046;5.184;2023-04-09T07:24:35;9.80;99.90
15203;DHT22;7702;51.046;5.184;2023-04-09T07:27:04;9.90;99.90
15203;DHT22;7702;51.046;5.184;2023-04-09T07:29:30;10.00;99.90
15203;DHT22;7702;51.046;5.184;2023-04-09T07:31:55;10.10;99.90
15203;DHT22;7702;51.046;5.184;2023-04-09T07:34:21;10.40;99.90
15203;DHT22;7702;51.046;5.184;2023-04-09T07:36:47;10.50;99.90
15203;DHT22;7702;51.046;5.184;2023-04-09T07:39:13;10.80;99.90
15203;DHT22;7702;51.046;5.184;2023-04-09T07:41:38;10.90;99.90
15203;DHT22;7702;51.046;5.184;2023-04-09T07:44:05;10.90;99.90
15203;DHT22;7702;51.046;5.184;2023-04-09T07:46:30;11.00;99.90
15203;DHT22;7702;51.046;5.184;2023-04-09T07:48:56;11.20;99.90
15203;DHT22;7702;51.046;5.184;2023-04-09T07:51:22;11.30;99.90
15203;DHT22;7702;51.046;5.184;2023-04-09T07:53:47;11.30;99.90
15203;DHT22;7702;51.046;5.184;2023-04-09T07:56:14;11.40;99.90
15203;DHT22;7702;51.046;5.184;2023-04-09T07:58:39;11.60;99.90
15203;DHT22;7702;51.046;5.184;2023-04-09T08:01:05;11.70;99.90
15203;DHT22;7702;51.046;5.184;2023-04-09T08:03:31;12.00;99.90
15203;DHT22;7702;51.046;5.184;2023-04-09T08:05:57;12.10;99.90
15203;DHT22;7702;51.046;5.184;2023-04-09T08:08:22;12.20;99.90
15203;DHT22;7702;51.046;5.184;2023-04-09T08:10:48;12.40;99.90
15203;DHT22;7702;51.046;5.184;2023-04-09T08:13:15;12.80;99.90
15203;DHT22;7702;51.046;5.184;2023-04-09T08:15:40;12.90;99.90
15203;DHT22;7702;51.046;5.184;2023-04-09T08:18:06;13.00;99.90
15203;DHT22;7702;51.046;5.184;2023-04-09T08:20:32;13.10;99.90
15203;DHT22;7702;51.046;5.184;2023-04-09T08:22:57;13.30;99.90
15203;DHT22;7702;51.046;5.184;2023-04-09T08:25:23;13.40;99.90
15203;DHT22;7702;51.046;5.184;2023-04-09T08:27:49;13.60;99.90
15203;DHT22;7702;51.046;5.184;2023-04-09T08:30:15;13.80;99.90
15203;DHT22;7702;51.046;5.184;2023-04-09T08:32:40;13.80;99.90
15203;DHT22;7702;51.046;5.184;2023-04-09T08:35:07;13.90;99.90
15203;DHT22;7702;51.046;5.184;2023-04-09T08:37:33;14.00;99.90
15203;DHT22;7702;51.046;5.184;2023-04-09T08:39:59;14.20;99.90
15203;DHT22;7702;51.046;5.184;2023-04-09T08:42:25;14.30;99.90
15203;DHT22;7702;51.046;5.184;2023-04-09T08:44:51;14.40;99.90
15203;DHT22;7702;51.046;5.184;2023-04-09T08:47:18;14.40;99.90
15203;DHT22;7702;51.046;5.184;2023-04-09T08:49:45;14.50;99.90
15203;DHT22;7702;51.046;5.184;2023-04-09T08:52:12;14.80;99.90
15203;DHT22;7702;51.046;5.184;2023-04-09T08:54:40;14.90;99.90
15203;DHT22;7702;51.046;5.184;2023-04-09T08:57:08;15.00;99.90
15203;DHT22;7702;51.046;5.184;2023-04-09T08:59:33;15.00;99.90
15203;DHT22;7702;51.046;5.184;2023-04-09T09:02:10;15.10;99.90
15203;DHT22;7702;51.046;5.184;2023-04-09T09:04:46;15.10;99.90
15203;DHT22;7702;51.046;5.184;2023-04-09T09:07:13;14.90;99.90
15203;DHT22;7702;51.046;5.184;2023-04-09T09:09:57;14.90;99.90
15203;DHT22;7702;51.046;5.184;2023-04-09T09:12:34;15.30;99.90
15203;DHT22;7702;51.046;5.184;2023-04-09T09:15:00;15.70;99.90
15203;DHT22;7702;51.046;5.184;2023-04-09T09:17:26;15.70;99.90
15203;DHT22;7702;51.046;5.184;2023-04-09T09:19:52;15.70;99.90
15203;DHT22;7702;51.046;5.184;2023-04-09T09:22:18;15.80;99.90
15203;DHT22;7702;51.046;5.184;2023-04-09T09:24:51;16.10;99.90
15203;DHT22;7702;51.046;5.184;2023-04-09T09:27:36;16.20;99.90
15203;DHT22;7702;51.046;5.184;2023-04-09T09:30:05;16.00;99.90
15203;DHT22;7702;51.046;5.184;2023-04-09T09:32:34;16.00;99.90
15203;DHT22;7702;51.046;5.184;2023-04-09T09:35:05;16.00;99.90
15203;DHT22;7702;51.046;5.184;2023-04-09T09:37:32;16.10;99.90
15203;DHT22;7702;51.046;5.184;2023-04-09T09:39:59;16.10;99.90
15203;DHT22;7702;51.046;5.184;2023-04-09T09:42:25;16.10;99.90
15203;DHT22;7702;51.046;5.184;2023-04-09T09:44:52;16.30;99.90
15203;DHT22;7702;51.046;5.184;2023-04-09T09:47:21;16.10;99.90
15203;DHT22;7702;51.046;5.184;2023-04-09T09:49:50;16.10;99.90
15203;DHT22;7702;51.046;5.184;2023-04-09T09:52:25;16.40;99.90
15203;DHT22;7702;51.046;5.184;2023-04-09T09:54:55;16.70;99.90
15203;DHT22;7702;51.046;5.184;2023-04-09T09:57:23;17.10;99.90
15203;DHT22;7702;51.046;5.184;2023-04-09T09:59:56;17.50;99.90
15203;DHT22;7702;51.046;5.184;2023-04-09T10:02:24;18.10;99.90
15203;DHT22;7702;51.046;5.184;2023-04-09T10:04:55;18.30;99.90
15203;DHT22;7702;51.046;5.184;2023-04-09T10:07:25;18.40;99.90
15203;DHT22;7702;51.046;5.184;2023-04-09T10:09:53;18.20;99.90
15203;DHT22;7702;51.046;5.184;2023-04-09T10:12:20;18.30;99.90
15203;DHT22;7702;51.046;5.184;2023-04-09T10:14:51;18.60;99.90
15203;DHT22;7702;51.046;5.184;2023-04-09T10:17:18;18.80;99.90
15203;DHT22;7702;51.046;5.184;2023-04-09T10:19:48;18.90;99.90
15203;DHT22;7702;51.046;5.184;2023-04-09T10:22:21;18.90;99.90
15203;DHT22;7702;51.046;5.184;2023-04-09T10:24:48;18.60;99.90
15203;DHT22;7702;51.046;5.184;2023-04-09T10:27:15;19.10;99.90
15203;DHT22;7702;51.046;5.184;2023-04-09T10:29:45;18.70;99.90
15203;DHT22;7702;51.046;5.184;2023-04-09T10:32:12;18.00;99.90
15203;DHT22;7702;51.046;5.184;2023-04-09T10:34:42;17.70;99.90
15203;DHT22;7702;51.046;5.184;2023-04-09T10:37:15;17.30;99.90
15203;DHT22;7702;51.046;5.184;2023-04-09T10:39:46;17.20;99.90
15203;DHT22;7702;51.046;5.184;2023-04-09T10:42:14;17.60;99.90
15203;DHT22;7702;51.046;5.184;2023-04-09T10:44:42;18.30;99.90
15203;DHT22;7702;51.046;5.184;2023-04-09T10:47:09;18.90;99.90
15203;DHT22;7702;51.046;5.184;2023-04-09T10:52:04;18.90;99.90
15203;DHT22;7702;51.046;5.184;2023-04-09T10:57:16;17.50;99.90
15203;DHT22;7702;51.046;5.184;2023-04-09T10:59:43;17.30;99.90
15203;DHT22;7702;51.046;5.184;2023-04-09T11:07:57;17.40;99.90
15203;DHT22;7702;51.046;5.184;2023-04-09T11:10:23;17.20;99.90
15203;DHT22;7702;51.046;5.184;2023-04-09T11:12:48;17.00;99.90
15203;DHT22;7702;51.046;5.184;2023-04-09T11:15:18;16.80;99.90
15203;DHT22;7702;51.046;5.184;2023-04-09T11:17:45;16.70;99.90
15203;DHT22;7702;51.046;5.184;2023-04-09T11:20:13;17.00;99.90
15203;DHT22;7702;51.046;5.184;2023-04-09T11:22:39;17.60;99.90
15203;DHT22;7702;51.046;5.184;2023-04-09T11:25:05;18.00;99.90
15203;DHT22;7702;51.046;5.184;2023-04-09T11:27:39;18.20;99.90
15203;DHT22;7702;51.046;5.184;2023-04-09T11:30:09;18.60;99.90
15203;DHT22;7702;51.046;5.184;2023-04-09T11:32:35;18.60;99.90
15203;DHT22;7702;51.046;5.184;2023-04-09T11:35:01;18.00;99.90
15203;DHT22;7702;51.046;5.184;2023-04-09T11:37:26;18.50;99.90
15203;DHT22;7702;51.046;5.184;2023-04-09T11:39:53;19.00;99.90
15203;DHT22;7702;51.046;5.184;2023-04-09T11:42:20;19.50;99.90
15203;DHT22;7702;51.046;5.184;2023-04-09T11:44:51;19.80;99.90
15203;DHT22;7702;51.046;5.184;2023-04-09T11:47:17;19.30;99.90
15203;DHT22;7702;51.046;5.184;2023-04-09T11:49:44;18.50;99.90
15203;DHT22;7702;51.046;5.184;2023-04-09T11:52:12;18.30;99.90
15203;DHT22;7702;51.046;5.184;2023-04-09T11:54:40;18.30;99.90
15203;DHT22;7702;51.046;5.184;2023-04-09T11:57:07;18.60;99.90
15203;DHT22;7702;51.046;5.184;2023-04-09T11:59:32;19.20;99.90
15203;DHT22;7702;51.046;5.184;2023-04-09T12:01:58;19.60;99.90
15203;DHT22;7702;51.046;5.184;2023-04-09T12:04:24;19.20;99.90
15203;DHT22;7702;51.046;5.184;2023-04-09T12:06:55;18.50;99.90
15203;DHT22;7702;51.046;5.184;2023-04-09T12:09:22;18.00;99.90
15203;DHT22;7702;51.046;5.184;2023-04-09T12:11:47;17.70;99.90
15203;DHT22;7702;51.046;5.184;2023-04-09T12:14:14;17.20;99.90
15203;DHT22;7702;51.046;5.184;2023-04-09T12:16:43;16.90;99.90
15203;DHT22;7702;51.046;5.184;2023-04-09T12:19:10;17.10;99.90
15203;DHT22;7702;51.046;5.184;2023-04-09T12:21:53;18.10;99.90
15203;DHT22;7702;51.046;5.184;2023-04-09T12:24:24;18.80;99.90
15203;DHT22;7702;51.046;5.184;2023-04-09T12:26:50;19.30;99.90
15203;DHT22;7702;51.046;5.184;2023-04-09T12:29:20;19.00;99.90
15203;DHT22;7702;51.046;5.184;2023-04-09T12:31:46;18.80;99.90
15203;DHT22;7702;51.046;5.184;2023-04-09T12:34:12;18.70;99.90
15203;DHT22;7702;51.046;5.184;2023-04-09T12:36:39;19.30;99.90
15203;DHT22;7702;51.046;5.184;2023-04-09T12:39:08;20.10;99.20
15203;DHT22;7702;51.046;5.184;2023-04-09T12:41:34;20.70;97.40
15203;DHT22;7702;51.046;5.184;2023-04-09T12:43:59;20.40;94.30
15203;DHT22;7702;51.046;5.184;2023-04-09T12:46:25;20.30;93.80
15203;DHT22;7702;51.046;5.184;2023-04-09T12:48:52;20.40;96.60
15203;DHT22;7702;51.046;5.184;2023-04-09T12:51:18;20.80;96.20
15203;DHT22;7702;51.046;5.184;2023-04-09T12:53:44;20.50;90.90
15203;DHT22;7702;51.046;5.184;2023-04-09T12:56:10;20.50;94.30
15203;DHT22;7702;51.046;5.184;2023-04-09T12:58:36;20.00;93.00
15203;DHT22;7702;51.046;5.184;2023-04-09T13:01:02;19.90;94.30
15203;DHT22;7702;51.046;5.184;2023-04-09T13:03:28;19.50;93.70
15203;DHT22;7702;51.046;5.184;2023-04-09T13:05:54;19.00;96.90
15203;DHT22;7702;51.046;5.184;2023-04-09T13:08:20;19.00;95.50
15203;DHT22;7702;51.046;5.184;2023-04-09T13:10:46;18.90;94.30
15203;DHT22;7702;51.046;5.184;2023-04-09T13:13:12;18.60;97.40
15203;DHT22;7702;51.046;5.184;2023-04-09T13:15:38;18.40;98.10
15203;DHT22;7702;51.046;5.184;2023-04-09T13:18:04;18.30;95.60
15203;DHT22;7702;51.046;5.184;2023-04-09T13:20:30;18.10;96.70
15203;DHT22;7702;51.046;5.184;2023-04-09T13:22:56;18.10;98.40
15203;DHT22;7702;51.046;5.184;2023-04-09T13:25:22;17.90;99.90
15203;DHT22;7702;51.046;5.184;2023-04-09T13:27:48;17.90;99.90
15203;DHT22;7702;51.046;5.184;2023-04-09T13:30:14;18.00;99.90
15203;DHT22;7702;51.046;5.184;2023-04-09T13:32:40;18.10;98.50
15203;DHT22;7702;51.046;5.184;2023-04-09T13:35:07;18.20;99.90
15203;DHT22;7702;51.046;5.184;2023-04-09T13:37:33;18.40;98.80
15203;DHT22;7702;51.046;5.184;2023-04-09T13:39:59;18.60;96.20
15203;DHT22;7702;51.046;5.184;2023-04-09T13:42:24;18.80;95.80
15203;DHT22;7702;51.046;5.184;2023-04-09T13:44:50;18.80;95.50
15203;DHT22;7702;51.046;5.184;2023-04-09T13:47:16;19.40;95.10
15203;DHT22;7702;51.046;5.184;2023-04-09T13:49:42;20.40;93.20
15203;DHT22;7702;51.046;5.184;2023-04-09T13:52:08;21.10;92.90
15203;DHT22;7702;51.046;5.184;2023-04-09T13:54:35;21.80;90.50
15203;DHT22;7702;51.046;5.184;2023-04-09T13:57:02;22.40;89.10
15203;DHT22;7702;51.046;5.184;2023-04-09T13:59:28;22.90;78.30
15203;DHT22;7702;51.046;5.184;2023-04-09T14:01:54;22.50;73.80
15203;DHT22;7702;51.046;5.184;2023-04-09T14:04:20;21.80;76.50
15203;DHT22;7702;51.046;5.184;2023-04-09T14:06:46;21.40;76.20
15203;DHT22;7702;51.046;5.184;2023-04-09T14:09:14;21.00;77.50
15203;DHT22;7702;51.046;5.184;2023-04-09T14:11:40;20.40;76.40
15203;DHT22;7702;51.046;5.184;2023-04-09T14:14:05;20.00;80.20
15203;DHT22;7702;51.046;5.184;2023-04-09T14:16:31;19.60;86.20
15203;DHT22;7702;51.046;5.184;2023-04-09T14:18:57;19.30;91.70
15203;DHT22;7702;51.046;5.184;2023-04-09T14:21:23;19.10;92.70
15203;DHT22;7702;51.046;5.184;2023-04-09T14:23:49;18.80;92.20
15203;DHT22;7702;51.046;5.184;2023-04-09T14:26:14;18.80;96.90
15203;DHT22;7702;51.046;5.184;2023-04-09T14:28:44;19.00;95.60
15203;DHT22;7702;51.046;5.184;2023-04-09T14:31:11;18.50;95.40
15203;DHT22;7702;51.046;5.184;2023-04-09T14:33:39;18.30;97.70
15203;DHT22;7702;51.046;5.184;2023-04-09T14:36:05;18.00;98.20
15203;DHT22;7702;51.046;5.184;2023-04-09T14:38:32;17.80;99.20
15203;DHT22;7702;51.046;5.184;2023-04-09T14:40:57;18.00;99.90
15203;DHT22;7702;51.046;5.184;2023-04-09T14:43:23;18.80;97.90
15203;DHT22;7702;51.046;5.184;2023-04-09T14:45:49;19.50;96.10
15203;DHT22;7702;51.046;5.184;2023-04-09T14:48:16;19.90;85.50
15203;DHT22;7702;51.046;5.184;2023-04-09T14:50:43;19.50;88.00
15203;DHT22;7702;51.046;5.184;2023-04-09T14:53:08;19.10;92.00
15203;DHT22;7702;51.046;5.184;2023-04-09T14:55:34;19.00;93.70
15203;DHT22;7702;51.046;5.184;2023-04-09T14:58:01;19.10;92.30
15203;DHT22;7702;51.046;5.184;2023-04-09T15:00:29;18.90;92.60
15203;DHT22;7702;51.046;5.184;2023-04-09T15:02:54;18.60;92.00
15203;DHT22;7702;51.046;5.184;2023-04-09T15:05:20;18.70;93.90
15203;DHT22;7702;51.046;5.184;2023-04-09T15:07:46;18.80;95.10
15203;DHT22;7702;51.046;5.184;2023-04-09T15:10:12;18.80;92.10
15203;DHT22;7702;51.046;5.184;2023-04-09T15:12:38;18.40;93.10
15203;DHT22;7702;51.046;5.184;2023-04-09T15:15:07;18.00;97.00
15203;DHT22;7702;51.046;5.184;2023-04-09T15:17:33;18.10;97.20
15203;DHT22;7702;51.046;5.184;2023-04-09T15:19:59;19.00;97.30
15203;DHT22;7702;51.046;5.184;2023-04-09T15:22:24;19.10;93.50
15203;DHT22;7702;51.046;5.184;2023-04-09T15:24:52;19.00;92.90
15203;DHT22;7702;51.046;5.184;2023-04-09T15:27:18;18.70;92.00
15203;DHT22;7702;51.046;5.184;2023-04-09T15:29:44;18.40;94.60
15203;DHT22;7702;51.046;5.184;2023-04-09T15:32:10;18.10;92.90
15203;DHT22;7702;51.046;5.184;2023-04-09T15:34:35;18.70;98.10
15203;DHT22;7702;51.046;5.184;2023-04-09T15:37:01;19.70;90.30
15203;DHT22;7702;51.046;5.184;2023-04-09T15:39:27;20.80;90.80
15203;DHT22;7702;51.046;5.184;2023-04-09T15:41:54;21.70;81.10
15203;DHT22;7702;51.046;5.184;2023-04-09T15:44:23;22.30;71.40
15203;DHT22;7702;51.046;5.184;2023-04-09T15:46:48;22.70;71.50
15203;DHT22;7702;51.046;5.184;2023-04-09T15:49:15;23.10;67.00
15203;DHT22;7702;51.046;5.184;2023-04-09T15:51:40;23.20;67.40
15203;DHT22;7702;51.046;5.184;2023-04-09T15:54:06;23.80;58.20
15203;DHT22;7702;51.046;5.184;2023-04-09T15:56:32;23.80;59.10
15203;DHT22;7702;51.046;5.184;2023-04-09T15:59:00;23.70;62.10
15203;DHT22;7702;51.046;5.184;2023-04-09T16:01:30;23.90;55.20
15203;DHT22;7702;51.046;5.184;2023-04-09T16:03:55;23.70;56.70
15203;DHT22;7702;51.046;5.184;2023-04-09T16:06:21;23.20;58.60
15203;DHT22;7702;51.046;5.184;2023-04-09T16:08:47;23.40;57.00
15203;DHT22;7702;51.046;5.184;2023-04-09T16:11:13;23.60;55.80
15203;DHT22;7702;51.046;5.184;2023-04-09T16:13:39;23.60;57.60
15203;DHT22;7702;51.046;5.184;2023-04-09T16:16:06;23.00;56.70